Date,TemperatureHighF,TemperatureAvgF,TemperatureLowF,DewpointHighF,DewpointAvgF,DewpointLowF,HumidityHigh,HumidityAvg,HumidityLow,PressureMaxIn,PressureMinIn,WindSpeedMaxMPH,WindSpeedAvgMPH,GustSpeedMaxMPH,PrecipitationSumIn
2013-1-1,44,25,18,44,20,12,99,82,76,29.95,29.77,6,0,6,0.01
2013-1-2,34,21,13,13,10,8,86,63,41,30.00,29.93,6,1,6,0.00
2013-1-3,39,30,16,26,22,10,79,70,60,30.10,29.93,14,7,14,0.02
2013-1-4,32,27,23,23,22,20,92,82,64,30.16,30.06,8,6,8,0.00
2013-1-5,38,32,25,26,24,23,92,74,62,30.06,30.02,17,8,17,0.00
2013-1-6,81,33,27,69,13,-22,74,53,10,30.11,29.85,19,7,19,0.09
2013-1-10,60,57,54,60,57,54,99,99,99,29.70,29.58,18,7,18,0.09
2013-1-11,63,59,54,61,52,48,99,78,63,29.67,29.56,18,11,20,0.33
2013-1-12,72,60,52,60,57,12,99,91,10,29.69,29.34,102,6,102,0.66
2013-1-13,33,26,24,30,23,-18,99,89,10,29.99,29.69,49,1,49,1.32
2013-1-14,25,23,18,21,19,15,92,86,77,30.17,30.02,0,0,0,0.00
2013-1-15,36,22,20,32,20,-27,95,92,10,30.08,29.83,0,0,0,0.00
2013-1-16,34,32,26,26,24,-19,82,75,10,29.84,29.76,9,6,9,0.01
2013-1-17,40,33,29,27,25,23,79,73,60,30.17,30.00,12,5,12,0.00
2013-1-18,45,41,39,28,26,25,59,56,51,30.05,29.91,20,11,20,0.00
2013-1-19,58,50,39,39,34,-8,76,57,10,29.93,29.66,32,16,34,0.76
2013-1-20,46,45,45,38,37,36,74,73,70,29.80,29.78,12,9,12,0.00
2013-1-21,26,21,16,16,8,-1,67,56,46,30.06,29.97,17,8,17,0.00
2013-1-22,14,13,11,2,-1,-3,57,52,49,30.13,30.06,32,8,32,0.00
2013-1-23,80,35,15,63,21,11,83,57,39,30.05,29.84,14,8,14,0.00
2013-1-24,32,23,16,17,9,6,66,55,36,30.30,29.98,15,10,15,0.38
2013-1-25,39,33,32,23,22,20,69,64,46,29.91,29.83,13,9,14,0.00
2013-1-26,40,30,23,23,18,-19,75,61,10,30.09,29.91,10,3,10,0.00
2013-1-27,45,34,14,44,30,9,99,86,70,30.05,29.77,19,7,19,0.22
2013-1-28,58,55,34,58,54,34,99,97,77,29.79,29.69,21,8,21,0.20
2013-1-29,68,63,56,60,58,56,99,86,75,29.69,29.11,59,23,103,11.74
2013-1-30,52,36,30,51,30,18,99,76,61,29.56,29.13,35,22,35,0.13
2013-1-31,34,26,15,30,18,8,98,71,57,30.00,29.57,74,17,74,0.00
2013-2-1,43,17,8,34,6,-36,98,64,10,30.21,30.00,101,9,101,5.88
2013-2-2,41,31,23,26,21,14,88,66,49,30.00,29.75,31,9,31,0.02
2013-2-3,34,30,25,28,20,17,99,69,53,29.87,29.70,25,8,25,0.00
2013-2-4,48,34,24,39,22,-14,88,68,10,29.80,29.52,15,8,15,0.01
2013-2-7,73,55,47,51,49,37,95,80,44,29.69,29.55,12,6,12,27.22
2013-2-8,42,39,37,39,24,-15,91,70,10,29.80,29.67,14,13,14,0.00
2013-2-9,41,40,39,31,18,-12,71,51,10,29.87,29.83,11,7,11,96.43
2013-2-11,51,46,40,30,28,26,57,48,39,29.85,29.74,27,11,27,0.00
2013-2-12,51,40,31,34,28,-10,81,63,10,29.87,29.62,8,3,8,0.02
2013-2-13,44,37,32,34,32,29,97,82,69,29.63,29.56,11,5,11,0.04
2013-2-14,57,45,35,37,34,-12,99,69,10,29.75,29.57,21,10,21,4.54
2013-2-15,41,36,29,33,23,17,82,61,43,29.93,29.77,21,9,21,0.00
2013-2-16,34,32,28,13,11,10,52,42,36,29.88,29.87,16,8,16,0.00
2013-2-18,49,49,48,47,47,47,97,94,92,29.38,29.32,23,18,23,0.02
2013-2-19,37,28,24,32,19,15,83,69,58,29.97,29.57,23,11,23,0.05
2013-2-20,28,26,18,15,14,10,71,59,55,30.08,29.96,9,6,10,0.00
2013-3-5,33,32,31,33,31,26,99,95,80,29.64,29.50,28,23,28,0.06
2013-3-8,52,44,36,32,28,-3,80,55,10,30.18,29.99,102,14,102,0.06
2013-3-9,58,45,21,35,31,12,78,60,41,29.98,29.74,11,7,11,0.38
2013-8-30,88,86,86,79,79,78,78,78,76,29.93,29.93,5,4,5,0.00
2013-8-31,99,92,84,84,81,77,94,72,50,29.94,29.81,14,7,14,0.00
2013-9-1,64,64,64,64,64,64,99,99,99,29.87,29.87,7,7,7,0.00